Time;durP1;ratioP1;P1;durP2;ratioP2;P2;SDS_P1;SDS_P2;PMS_P1;PMS_P2;Temp;Humidity;BMP_temperature;BMP_pressure;BME280_temperature;BME280_humidity;BME280_pressure;Samples;Min_cycle;Max_cycle;Signal;HPM_P1;HPM_P2
2022/09/02 00:00:31;;;;;;;0.63;0.10;;;;;;;12.86;43.42;102150.94;5008240;28;20045;-77
2022/09/02 00:02:56;;;;;;;0.52;0.10;;;;;;;12.84;43.19;102152.75;5019800;28;20049;-78
2022/09/02 00:05:22;;;;;;;1.65;0.20;;;;;;;12.76;43.39;102143.38;5008541;28;20066;-76
2022/09/02 00:07:48;;;;;;;0.70;0.20;;;;;;;12.75;43.66;102144.31;4992554;28;20727;-77
2022/09/02 00:10:13;;;;;;;0.68;0.32;;;;;;;12.73;43.41;102143.47;4988526;28;20044;-77
2022/09/02 00:12:39;;;;;;;0.95;0.30;;;;;;;12.68;43.25;102136.56;4996446;28;20033;-79
2022/09/02 00:15:05;;;;;;;0.80;0.25;;;;;;;12.72;43.17;102137.38;4988719;28;20100;-78
2022/09/02 00:17:30;;;;;;;0.45;0.10;;;;;;;12.69;43.31;102133.09;5009273;28;20077;-79
2022/09/02 00:19:56;;;;;;;0.63;0.13;;;;;;;12.69;42.98;102133.09;4988464;28;20619;-79
2022/09/02 00:22:22;;;;;;;0.73;0.30;;;;;;;12.68;43.19;102128.69;4980733;28;20420;-78
2022/09/02 00:24:48;;;;;;;0.60;0.20;;;;;;;12.70;43.15;102134.78;5011659;28;20481;-79
2022/09/02 00:27:13;;;;;;;3.03;0.20;;;;;;;12.78;42.65;102131.09;4983722;28;20065;-79
2022/09/02 00:29:39;;;;;;;2.20;0.17;;;;;;;12.77;42.46;102129.38;4994032;28;20032;-78
2022/09/02 00:32:05;;;;;;;0.30;0.10;;;;;;;12.74;42.49;102130.34;4990382;28;20742;-77
2022/09/02 00:34:31;;;;;;;0.60;0.20;;;;;;;12.62;42.39;102126.25;4992816;28;20025;-78
2022/09/02 00:36:57;;;;;;;1.60;0.13;;;;;;;12.70;42.51;102124.31;4989801;28;20058;-77
2022/09/02 00:39:22;;;;;;;0.22;0.13;;;;;;;12.72;41.93;102126.03;4992308;28;20030;-78
2022/09/02 00:41:48;;;;;;;0.30;0.20;;;;;;;12.59;42.60;102120.25;4988890;28;20037;-77
2022/09/02 00:44:16;;;;;;;1.20;0.20;;;;;;;12.60;42.54;102127.19;5009189;28;20037;-77
2022/09/02 00:46:42;;;;;;;1.92;0.20;;;;;;;12.61;42.33;102123.69;5004858;28;20034;-77
2022/09/02 00:49:17;;;;;;;1.73;0.10;;;;;;;12.62;42.29;102122.78;4992331;28;20041;-78
2022/09/02 00:52:03;;;;;;;0.40;0.10;;;;;;;12.62;42.42;102131.50;4996743;28;20048;-80
2022/09/02 00:54:31;;;;;;;1.83;0.15;;;;;;;12.50;42.76;102124.00;5011834;28;20044;-78
2022/09/02 00:56:59;;;;;;;0.60;0.20;;;;;;;12.56;42.64;102122.94;5020627;28;20026;-77
2022/09/02 00:59:39;;;;;;;0.60;0.10;;;;;;;12.37;43.00;102120.00;5005465;28;20036;-79
2022/09/02 01:02:06;;;;;;;0.50;0.10;;;;;;;12.39;43.03;102123.44;5012388;28;20046;-76
2022/09/02 01:04:32;;;;;;;2.50;0.50;;;;;;;12.39;42.91;102118.19;4992240;28;20042;-78
2022/09/02 01:06:57;;;;;;;0.60;0.10;;;;;;;12.28;43.52;102114.09;4990981;28;20054;-76
2022/09/02 01:09:23;;;;;;;1.40;0.20;;;;;;;12.36;43.14;102113.03;5020753;28;20030;-77
2022/09/02 01:11:52;;;;;;;1.00;0.20;;;;;;;12.37;43.35;102109.50;4986243;28;20467;-78
2022/09/02 01:14:18;;;;;;;1.05;0.30;;;;;;;12.34;43.31;102112.22;5016105;28;20036;-79
2022/09/02 01:16:47;;;;;;;0.80;0.20;;;;;;;12.25;43.72;102108.94;5021917;28;20042;-77
2022/09/02 01:19:36;;;;;;;0.75;0.20;;;;;;;12.23;43.58;102110.75;4990974;28;20034;-78
2022/09/02 01:22:13;;;;;;;0.43;0.20;;;;;;;12.21;43.89;102104.69;5005753;28;20064;-78
2022/09/02 01:24:39;;;;;;;1.17;0.30;;;;;;;12.06;44.16;102102.47;5011253;28;20038;-79
2022/09/02 01:27:05;;;;;;;0.38;0.10;;;;;;;12.08;44.20;102098.06;4993151;28;20090;-77
2022/09/02 01:29:30;;;;;;;1.15;0.30;;;;;;;12.05;44.18;102104.25;5014375;28;20029;-77
2022/09/02 01:31:56;;;;;;;0.50;0.20;;;;;;;11.98;44.76;102096.59;4991071;28;20038;-78
2022/09/02 01:34:22;;;;;;;0.85;0.20;;;;;;;12.05;44.59;102099.00;4994346;28;20071;-77
2022/09/02 01:36:48;;;;;;;0.80;0.30;;;;;;;11.96;44.49;102103.63;4992325;28;20120;-78
2022/09/02 01:39:14;;;;;;;2.05;0.40;;;;;;;11.91;45.12;102095.00;4993490;28;20092;-77
2022/09/02 01:41:40;;;;;;;2.17;0.35;;;;;;;11.87;45.03;102099.50;5009608;28;20214;-78
2022/09/02 01:44:06;;;;;;;0.73;0.30;;;;;;;11.84;45.27;102095.19;4990730;28;20037;-78
2022/09/02 01:46:33;;;;;;;1.00;0.20;;;;;;;11.85;45.49;102091.66;5011159;28;20563;-78
2022/09/02 01:48:58;;;;;;;0.93;0.30;;;;;;;11.74;45.66;102087.56;5006543;28;20025;-77
2022/09/02 01:51:26;;;;;;;2.58;0.25;;;;;;;11.75;45.83;102084.03;4989098;28;20133;-78
2022/09/02 01:53:52;;;;;;;0.93;0.20;;;;;;;11.70;46.05;102086.78;5012365;28;20415;-78
2022/09/02 01:56:17;;;;;;;1.88;0.20;;;;;;;11.81;45.65;102089.16;4996885;28;20050;-77
2022/09/02 01:58:43;;;;;;;1.27;0.32;;;;;;;11.77;46.08;102088.38;5007176;28;20514;-77
2022/09/02 02:01:10;;;;;;;3.22;0.20;;;;;;;11.81;46.07;102079.53;4993334;28;20061;-78
2022/09/02 02:03:37;;;;;;;0.82;0.30;;;;;;;11.71;46.54;102079.78;5008613;28;20046;-79
2022/09/02 02:06:11;;;;;;;0.73;0.20;;;;;;;11.78;46.33;102079.63;4993642;28;20021;-78
2022/09/02 02:08:38;;;;;;;0.60;0.20;;;;;;;11.73;46.22;102075.38;4994569;28;20421;-79
2022/09/02 02:11:05;;;;;;;0.70;0.28;;;;;;;11.73;46.47;102073.63;4989682;28;20066;-78
2022/09/02 02:13:32;;;;;;;0.82;0.30;;;;;;;11.70;46.37;102075.44;5012659;28;20057;-78
2022/09/02 02:15:58;;;;;;;3.92;0.17;;;;;;;11.63;46.98;102069.50;4992071;28;20042;-78
2022/09/02 02:18:24;;;;;;;0.80;0.30;;;;;;;11.66;47.06;102069.41;4993450;28;20037;-77
2022/09/02 02:20:50;;;;;;;1.33;0.20;;;;;;;11.61;47.13;102066.06;5008295;28;20319;-78
2022/09/02 02:23:16;;;;;;;1.55;0.75;;;;;;;11.55;47.31;102061.84;4992426;28;20057;-77
2022/09/02 02:25:42;;;;;;;0.68;0.22;;;;;;;11.59;47.26;102068.72;5004991;28;20029;-77
2022/09/02 02:28:08;;;;;;;0.80;0.30;;;;;;;11.59;47.50;102068.72;5003634;28;20038;-78
2022/09/02 02:30:34;;;;;;;0.60;0.30;;;;;;;11.61;47.41;102071.31;4992851;28;20041;-78
2022/09/02 02:33:01;;;;;;;1.83;0.30;;;;;;;11.57;47.65;102065.28;4997103;28;20069;-77
2022/09/02 02:35:27;;;;;;;4.25;0.40;;;;;;;11.54;47.55;102065.38;4987643;28;20076;-79
2022/09/02 02:37:54;;;;;;;0.80;0.30;;;;;;;11.49;47.93;102066.38;4989936;28;20042;-79
2022/09/02 02:40:22;;;;;;;0.47;0.20;;;;;;;11.42;48.23;102066.53;4993162;28;20041;-78
2022/09/02 02:42:52;;;;;;;0.60;0.40;;;;;;;11.52;47.99;102061.06;4980432;28;20054;-77
2022/09/02 02:45:20;;;;;;;0.75;0.20;;;;;;;11.46;48.21;102065.56;4994691;28;20049;-78
2022/09/02 02:47:46;;;;;;;1.10;0.30;;;;;;;11.47;48.49;102058.56;5021605;28;20042;-78
2022/09/02 02:50:15;;;;;;;2.67;0.43;;;;;;;11.42;48.54;102061.31;5007720;28;20156;-78
2022/09/02 02:52:41;;;;;;;0.70;0.30;;;;;;;11.51;48.11;102054.97;4990941;28;20125;-78
2022/09/02 02:55:10;;;;;;;2.03;0.20;;;;;;;11.41;48.17;102049.09;4990112;28;20092;-78
2022/09/02 02:57:38;;;;;;;1.00;0.40;;;;;;;11.42;48.68;102058.69;5002154;28;20057;-79
2022/09/02 03:00:12;;;;;;;2.13;0.30;;;;;;;11.40;48.44;102052.63;5008715;28;20064;-79
2022/09/02 03:02:38;;;;;;;0.68;0.20;;;;;;;11.35;48.85;102046.66;5021658;28;20052;-78
2022/09/02 03:05:07;;;;;;;2.35;0.30;;;;;;;11.32;48.96;102043.22;4990257;28;20100;-78
2022/09/02 03:07:33;;;;;;;1.55;0.35;;;;;;;11.33;48.81;102045.81;5003405;28;20046;-77
2022/09/02 03:09:58;;;;;;;0.80;0.40;;;;;;;11.29;49.01;102046.78;4992547;28;20137;-77
2022/09/02 03:12:25;;;;;;;0.98;0.30;;;;;;;11.22;48.96;102043.47;5015096;28;20061;-77
2022/09/02 03:14:51;;;;;;;0.70;0.35;;;;;;;11.20;49.03;102045.25;5001971;28;20045;-77
2022/09/02 03:17:18;;;;;;;1.23;0.30;;;;;;;11.19;49.07;102046.13;4991991;28;21057;-78
2022/09/02 03:19:44;;;;;;;1.58;0.20;;;;;;;11.17;49.17;102044.47;4995725;28;20095;-78
2022/09/02 03:22:09;;;;;;;0.77;0.25;;;;;;;11.21;49.13;102043.50;4993696;28;20050;-79
2022/09/02 03:24:39;;;;;;;0.70;0.40;;;;;;;11.19;49.04;102040.91;5012436;28;20495;-78
2022/09/02 03:27:05;;;;;;;0.70;0.20;;;;;;;11.21;48.90;102043.50;5022243;28;20072;-77
2022/09/02 03:29:30;;;;;;;2.22;0.30;;;;;;;11.27;49.11;102042.50;5010464;28;20050;-77
2022/09/02 03:31:57;;;;;;;0.60;0.20;;;;;;;11.23;49.02;102033.84;5005869;28;20064;-78
2022/09/02 03:34:22;;;;;;;1.90;0.25;;;;;;;11.14;49.19;102039.31;4999079;28;20022;-78
2022/09/02 03:36:48;;;;;;;0.60;0.20;;;;;;;11.09;49.19;102041.19;5009727;28;20065;-78
2022/09/02 03:39:13;;;;;;;0.85;0.28;;;;;;;11.08;49.29;102035.06;4991039;28;20033;-77
2022/09/02 03:41:41;;;;;;;0.40;0.20;;;;;;;11.13;49.23;102032.34;4995136;28;20319;-77
2022/09/02 03:44:09;;;;;;;0.70;0.60;;;;;;;11.16;49.06;102027.06;4990612;28;20637;-79
2022/09/02 03:46:35;;;;;;;0.60;0.43;;;;;;;11.17;48.87;102032.25;5009120;28;20121;-77
2022/09/02 03:49:02;;;;;;;1.92;0.30;;;;;;;11.20;48.94;102033.94;4998015;28;20034;-79
2022/09/02 03:51:28;;;;;;;1.13;0.22;;;;;;;11.21;48.73;102025.16;4991222;28;20511;-78
2022/09/02 03:53:54;;;;;;;0.90;0.20;;;;;;;11.13;49.16;102028.00;4993021;28;20046;-77
2022/09/02 03:56:20;;;;;;;2.58;0.20;;;;;;;11.08;49.14;102026.38;5016762;28;20053;-78
2022/09/02 03:58:48;;;;;;;2.90;0.32;;;;;;;11.09;49.19;102025.47;5002472;28;20486;-78
2022/09/02 04:01:18;;;;;;;0.88;0.38;;;;;;;11.05;49.06;102030.78;5005092;28;20025;-77
2022/09/02 04:03:45;;;;;;;1.20;0.30;;;;;;;11.07;49.41;102025.50;4983349;28;20042;-77
2022/09/02 04:06:13;;;;;;;0.47;0.25;;;;;;;11.08;49.05;102028.97;4986624;28;20034;-77
2022/09/02 04:08:40;;;;;;;1.08;0.30;;;;;;;11.07;48.75;102027.28;4986847;28;20117;-76
2022/09/02 04:11:13;;;;;;;1.35;0.20;;;;;;;11.01;48.85;102023.88;5018210;28;20109;-77
2022/09/02 04:13:39;;;;;;;0.88;0.40;;;;;;;10.97;49.17;102027.50;4978733;28;20133;-78
2022/09/02 04:16:11;;;;;;;5.85;0.40;;;;;;;10.90;49.23;102028.50;4985752;28;20607;-77
2022/09/02 04:18:37;;;;;;;0.40;0.20;;;;;;;10.80;49.24;102029.59;5020560;28;20100;-79
2022/09/02 04:21:03;;;;;;;1.70;0.60;;;;;;;10.80;48.92;102021.75;4974770;28;20041;-79
2022/09/02 04:23:30;;;;;;;1.30;0.20;;;;;;;10.82;49.11;102023.47;4986747;28;20760;-77
2022/09/02 04:25:56;;;;;;;1.20;0.40;;;;;;;10.76;48.99;102023.56;4999641;28;20124;-78
2022/09/02 04:28:22;;;;;;;1.65;0.20;;;;;;;10.72;48.88;102019.28;5002471;28;20112;-77
2022/09/02 04:30:48;;;;;;;1.00;0.30;;;;;;;10.68;49.29;102025.47;5003995;28;20040;-78
2022/09/02 04:33:15;;;;;;;1.05;0.30;;;;;;;10.75;49.03;102020.97;4986822;28;20042;-78
2022/09/02 04:35:46;;;;;;;4.10;0.30;;;;;;;10.64;49.37;102019.47;5006836;28;20029;-76
2022/09/02 04:38:15;;;;;;;0.45;0.20;;;;;;;10.76;49.23;102012.25;4985462;28;20137;-77
2022/09/02 04:40:45;;;;;;;0.90;0.40;;;;;;;10.76;49.46;102020.94;4985715;28;20558;-76
2022/09/02 04:43:12;;;;;;;1.58;0.47;;;;;;;10.81;49.58;102010.38;5016601;28;20124;-78
2022/09/02 04:45:41;;;;;;;1.30;0.45;;;;;;;10.84;49.52;102016.44;5016124;28;20037;-79
2022/09/02 04:48:07;;;;;;;0.98;0.50;;;;;;;10.80;49.62;102014.75;4981246;28;20575;-78
2022/09/02 04:50:34;;;;;;;0.60;0.30;;;;;;;10.80;49.86;102017.38;5002259;28;20116;-79
2022/09/02 04:53:00;;;;;;;2.83;0.40;;;;;;;10.72;50.38;102021.91;5002548;28;20041;-80
2022/09/02 04:55:27;;;;;;;2.35;0.30;;;;;;;10.86;49.81;102019.03;5001393;28;20471;-78
2022/09/02 04:57:52;;;;;;;1.00;0.30;;;;;;;10.90;49.81;102020.66;5000571;28;20148;-76
2022/09/02 05:00:19;;;;;;;1.00;0.55;;;;;;;10.94;49.91;102019.69;4988090;28;20203;-78
2022/09/02 05:02:46;;;;;;;1.38;0.60;;;;;;;10.87;50.12;102018.13;4996793;28;20046;-78
2022/09/02 05:05:13;;;;;;;0.50;0.20;;;;;;;10.93;50.12;102014.50;4982933;28;20026;-77
2022/09/02 05:07:38;;;;;;;1.33;0.30;;;;;;;10.87;50.35;102019.88;5005384;28;20052;-79
2022/09/02 05:10:05;;;;;;;0.63;0.32;;;;;;;10.95;50.03;102024.06;4987476;28;20037;-76
2022/09/02 05:12:35;;;;;;;0.80;0.30;;;;;;;10.90;50.44;102019.81;4983599;28;20053;-77
2022/09/02 05:15:01;;;;;;;2.15;0.40;;;;;;;10.84;50.66;102018.22;4992425;28;20380;-78
2022/09/02 05:17:34;;;;;;;3.42;0.40;;;;;;;10.91;50.47;102019.78;5006202;28;20233;-79
2022/09/02 05:20:01;;;;;;;2.83;0.52;;;;;;;11.01;50.16;102021.25;5009295;28;20034;-78
2022/09/02 05:22:28;;;;;;;3.42;0.30;;;;;;;10.96;50.65;102010.06;4992850;28;20048;-78
2022/09/02 05:24:55;;;;;;;2.30;0.77;;;;;;;10.99;50.45;102016.97;4990395;28;20030;-78
2022/09/02 05:27:22;;;;;;;1.00;0.30;;;;;;;10.99;50.41;102023.06;4988330;28;20041;-78
2022/09/02 05:29:48;;;;;;;2.75;0.30;;;;;;;10.90;50.91;102012.81;5007465;28;20175;-78
2022/09/02 05:32:17;;;;;;;0.90;0.20;;;;;;;11.16;49.89;102016.59;5002404;28;20071;-77
2022/09/02 05:34:46;;;;;;;1.15;0.40;;;;;;;12.19;48.18;102017.38;4990055;28;20069;-78
2022/09/02 05:37:12;;;;;;;1.15;0.50;;;;;;;14.62;42.44;102009.25;4981908;28;20041;-79
2022/09/02 05:39:37;;;;;;;0.93;0.43;;;;;;;16.03;39.23;102004.31;5005146;28;20041;-78
2022/09/02 05:42:05;;;;;;;0.80;0.30;;;;;;;16.73;37.59;102001.00;4978349;28;20065;-78
2022/09/02 05:44:35;;;;;;;1.65;0.25;;;;;;;16.98;36.85;102005.13;4985731;28;20033;-79
2022/09/02 05:47:02;;;;;;;0.88;0.20;;;;;;;17.68;33.60;102007.78;5008232;28;20044;-77
2022/09/02 05:49:28;;;;;;;2.67;0.63;;;;;;;17.59;34.53;102009.97;4999997;28;20034;-78
2022/09/02 05:51:59;;;;;;;2.70;0.30;;;;;;;17.18;35.73;102012.91;5002340;28;20080;-79
2022/09/02 05:54:35;;;;;;;1.13;0.20;;;;;;;17.21;36.08;102019.81;4986868;28;20129;-78
2022/09/02 05:57:10;;;;;;;0.38;0.15;;;;;;;17.93;34.98;102017.91;5006298;28;20044;-78
2022/09/02 05:59:41;;;;;;;0.60;0.20;;;;;;;19.01;33.48;102012.84;5010713;28;20033;-78
2022/09/02 06:02:12;;;;;;;0.65;0.20;;;;;;;19.45;32.33;102017.34;4992449;28;20913;-78
2022/09/02 06:04:40;;;;;;;1.48;0.25;;;;;;;19.48;31.34;102006.56;4986010;28;20048;-79
2022/09/02 06:07:08;;;;;;;2.05;0.35;;;;;;;19.97;31.05;102008.91;5000312;28;20052;-79
2022/09/02 06:09:34;;;;;;;1.55;0.30;;;;;;;21.13;30.00;102007.66;5003106;28;20157;-78
2022/09/02 06:12:00;;;;;;;1.85;0.30;;;;;;;22.54;27.86;101995.13;4994718;28;20048;-76
2022/09/02 06:14:29;;;;;;;1.08;0.30;;;;;;;22.28;27.49;101994.34;4988406;28;20045;-79
2022/09/02 06:16:57;;;;;;;0.75;0.20;;;;;;;22.57;27.42;101994.03;5001382;28;20025;-77
2022/09/02 06:19:32;;;;;;;0.93;0.30;;;;;;;22.32;27.39;101997.66;4986823;28;20487;-79
2022/09/02 06:22:01;;;;;;;0.38;0.20;;;;;;;21.82;27.86;101992.28;4987818;28;20464;-77
2022/09/02 06:24:28;;;;;;;0.85;0.40;;;;;;;21.83;28.72;101998.47;5000821;28;20030;-78
2022/09/02 06:26:54;;;;;;;0.80;0.20;;;;;;;22.21;27.84;101997.59;5019500;28;20063;-78
2022/09/02 06:29:21;;;;;;;3.13;0.22;;;;;;;22.13;28.13;102001.63;5002057;28;20740;-77
2022/09/02 06:31:48;;;;;;;1.65;0.43;;;;;;;22.31;27.65;101998.59;4991006;28;20119;-78
2022/09/02 06:34:17;;;;;;;0.68;0.30;;;;;;;22.52;27.62;101997.03;5005683;28;20160;-78
2022/09/02 06:36:45;;;;;;;1.15;0.32;;;;;;;21.95;28.51;101993.13;4991858;28;20049;-78
2022/09/02 06:39:15;;;;;;;1.38;0.20;;;;;;;22.22;28.31;102001.94;4990179;28;20050;-78
2022/09/02 06:41:45;;;;;;;3.05;0.63;;;;;;;23.57;25.89;102002.53;5019803;28;20651;-77
2022/09/02 06:44:15;;;;;;;3.42;0.40;;;;;;;23.32;26.41;102001.78;5022461;28;20108;-78
2022/09/02 06:46:46;;;;;;;1.50;0.20;;;;;;;23.29;26.09;102003.81;5023752;28;20045;-78
2022/09/02 06:49:15;;;;;;;1.13;0.40;;;;;;;23.18;26.31;102008.09;5009095;28;20005;-78
2022/09/02 06:51:46;;;;;;;0.55;0.20;;;;;;;23.35;26.20;102008.69;5026838;28;20068;-78
2022/09/02 06:54:15;;;;;;;4.13;0.22;;;;;;;23.77;25.31;102007.16;5025450;28;20016;-78
2022/09/02 06:56:42;;;;;;;0.65;0.30;;;;;;;24.36;25.11;101997.16;5008011;28;20037;-76
2022/09/02 06:59:09;;;;;;;1.00;0.20;;;;;;;24.48;25.12;101993.53;5008315;28;20108;-78
2022/09/02 07:01:41;;;;;;;3.55;0.20;;;;;;;25.44;23.85;101986.34;5004822;28;20113;-78
2022/09/02 07:06:53;;;;;;;0.65;0.40;;;;;;;25.33;23.12;101986.44;5035119;28;20022;-78
2022/09/02 07:09:29;;;;;;;0.70;0.30;;;;;;;26.22;22.66;101992.91;5010131;28;20033;-79
2022/09/02 07:12:00;;;;;;;2.75;0.40;;;;;;;26.87;21.68;101979.00;5001621;28;20048;-79
2022/09/02 07:14:28;;;;;;;1.88;0.38;;;;;;;27.09;21.17;101977.81;5006985;28;20038;-78
2022/09/02 07:16:56;;;;;;;0.63;0.25;;;;;;;26.24;21.73;101984.72;4991068;28;20197;-80
2022/09/02 07:19:27;;;;;;;1.42;0.32;;;;;;;25.84;22.95;101975.72;5007587;28;20058;-79
2022/09/02 07:21:53;;;;;;;1.80;0.40;;;;;;;25.74;22.64;101984.72;4989846;28;20051;-79
2022/09/02 07:24:22;;;;;;;1.95;0.30;;;;;;;26.87;21.58;101989.72;4990168;28;20030;-79
2022/09/02 07:26:49;;;;;;;1.20;0.40;;;;;;;26.23;22.09;101981.22;4993121;28;20103;-79
2022/09/02 07:29:17;;;;;;;1.30;1.02;;;;;;;26.15;21.11;101985.56;5002320;28;20044;-78
2022/09/02 07:31:47;;;;;;;1.17;1.00;;;;;;;24.91;22.70;101981.91;4987982;28;20033;-79
2022/09/02 07:34:16;;;;;;;3.55;0.95;;;;;;;25.27;23.38;101974.44;4999436;28;20033;-80
2022/09/02 07:36:47;;;;;;;1.50;0.98;;;;;;;25.45;23.11;101978.19;4989655;28;20658;-78
2022/09/02 07:39:17;;;;;;;1.77;0.93;;;;;;;26.78;21.26;101983.41;4992832;28;20125;-79
2022/09/02 07:41:48;;;;;;;0.70;0.60;;;;;;;27.67;20.68;101971.50;4975957;28;20797;-79
2022/09/02 07:44:14;;;;;;;4.22;1.05;;;;;;;28.70;19.51;101980.19;4979938;28;20026;-76
2022/09/02 07:46:40;;;;;;;1.83;0.80;;;;;;;28.73;19.70;101971.81;4990519;28;20111;-79
2022/09/02 07:49:09;;;;;;;1.92;1.10;;;;;;;28.02;19.78;101969.91;5003305;28;20030;-77
2022/09/02 07:51:38;;;;;;;1.80;0.70;;;;;;;28.38;19.61;101970.81;4991293;28;20076;-79
2022/09/02 07:54:05;;;;;;;2.08;0.65;;;;;;;27.87;19.92;101970.38;4987278;28;20390;-78
2022/09/02 07:56:32;;;;;;;1.65;0.77;;;;;;;28.20;19.55;101968.09;4989871;28;20033;-78
2022/09/02 07:58:58;;;;;;;2.25;0.75;;;;;;;27.45;20.21;101964.63;4996827;28;20054;-76
2022/09/02 08:01:24;;;;;;;1.77;0.52;;;;;;;27.63;19.91;101964.72;4968824;28;20029;-77
2022/09/02 08:03:52;;;;;;;11.13;5.93;;;;;;;28.38;19.16;101967.28;4980664;28;20037;-76
2022/09/02 08:06:20;;;;;;;1.98;0.55;;;;;;;27.44;20.25;101979.88;5002661;28;20042;-76
2022/09/02 08:08:46;;;;;;;0.98;0.20;;;;;;;27.22;20.51;101969.50;4986005;28;20782;-77
2022/09/02 08:11:12;;;;;;;1.35;1.08;;;;;;;27.45;20.44;101970.00;4968350;28;20041;-76
2022/09/02 08:13:39;;;;;;;0.70;0.43;;;;;;;27.27;20.42;101975.28;5000110;28;20041;-77
2022/09/02 08:16:05;;;;;;;5.68;0.95;;;;;;;28.03;20.04;101969.75;4984410;28;20365;-76
2022/09/02 08:18:31;;;;;;;4.68;0.63;;;;;;;28.46;19.53;101967.38;4971666;28;20799;-75
2022/09/02 08:20:56;;;;;;;3.45;0.60;;;;;;;28.21;19.47;101967.13;4970806;28;20101;-77
2022/09/02 08:23:22;;;;;;;1.73;0.70;;;;;;;26.87;20.93;101954.84;4987083;28;20152;-76
2022/09/02 08:25:47;;;;;;;1.10;0.52;;;;;;;26.71;21.53;101966.16;4987257;28;20044;-75
2022/09/02 08:28:14;;;;;;;1.63;0.60;;;;;;;26.80;20.92;101956.41;4969550;28;20092;-75
2022/09/02 08:30:39;;;;;;;1.95;0.50;;;;;;;26.71;20.95;101963.47;5005100;28;20033;-74
2022/09/02 08:33:05;;;;;;;0.90;0.60;;;;;;;27.51;20.42;101954.13;4985801;28;20076;-76
2022/09/02 08:35:31;;;;;;;0.70;0.35;;;;;;;27.46;20.19;101961.78;5002534;28;20033;-78
2022/09/02 08:38:00;;;;;;;1.02;0.40;;;;;;;26.64;20.83;101965.88;4985621;28;20041;-76
2022/09/02 08:40:44;;;;;;;3.03;0.40;;;;;;;25.56;23.04;101960.41;5002355;28;20115;-78
2022/09/02 08:43:38;;;;;;;5.10;0.40;;;;;;;26.03;22.40;101961.53;4990954;28;20042;-78
2022/09/02 08:46:07;;;;;;;1.77;0.32;;;;;;;26.08;22.82;101958.47;5018335;28;20049;-77
2022/09/02 08:48:51;;;;;;;2.42;0.30;;;;;;;26.19;22.60;101962.88;5018073;28;20165;-77
2022/09/02 08:51:35;;;;;;;1.00;0.40;;;;;;;26.81;21.80;101952.75;5015772;28;20037;-77
2022/09/02 08:54:16;;;;;;;0.88;0.20;;;;;;;26.69;21.44;101952.91;5008168;28;20045;-77
2022/09/02 08:56:41;;;;;;;4.37;0.90;;;;;;;25.96;22.43;101951.53;5015324;28;20088;-77
2022/09/02 08:59:09;;;;;;;1.60;0.38;;;;;;;26.64;22.27;101944.44;4987367;28;20041;-77
2022/09/02 09:01:45;;;;;;;3.88;0.40;;;;;;;25.45;21.73;101943.41;5005187;28;20238;-78
2022/09/02 09:04:10;;;;;;;3.30;0.90;;;;;;;24.79;23.30;101950.84;5008201;28;20044;-78
2022/09/02 09:06:55;;;;;;;1.65;0.38;;;;;;;22.90;26.04;101942.72;5008689;28;20439;-79
2022/09/02 09:09:20;;;;;;;1.30;0.20;;;;;;;23.25;26.57;101941.81;5005192;28;20124;-79
2022/09/02 09:12:00;;;;;;;0.90;0.30;;;;;;;23.29;25.61;101937.97;4998668;28;20137;-78
2022/09/02 09:14:37;;;;;;;0.65;0.20;;;;;;;22.38;26.86;101938.59;5009303;28;20037;-77
2022/09/02 09:17:18;;;;;;;3.50;0.40;;;;;;;22.66;26.91;101931.22;4998639;28;20049;-79
2022/09/02 09:19:52;;;;;;;1.30;0.28;;;;;;;22.73;27.02;101929.81;5004350;28;20037;-78
2022/09/02 09:22:21;;;;;;;0.70;0.20;;;;;;;22.90;27.31;101937.41;4999405;28;20037;-77
2022/09/02 09:24:49;;;;;;;2.00;0.60;;;;;;;23.06;25.68;101925.56;5001412;28;20099;-77
2022/09/02 09:27:18;;;;;;;1.15;0.50;;;;;;;21.76;27.73;101916.41;4999478;28;20045;-78
2022/09/02 09:29:44;;;;;;;2.88;0.20;;;;;;;21.99;27.90;101919.22;4995424;28;20025;-75
2022/09/02 09:32:32;;;;;;;2.58;0.50;;;;;;;22.83;27.15;101917.50;4985320;28;20960;-77
2022/09/02 09:35:06;;;;;;;1.85;0.30;;;;;;;23.28;26.33;101909.63;5008294;28;20061;-79
2022/09/02 09:37:38;;;;;;;4.85;0.25;;;;;;;23.57;25.02;101914.47;5002540;28;20042;-80
2022/09/02 09:40:22;;;;;;;1.75;0.30;;;;;;;23.50;25.69;101907.91;5013495;28;20033;-80
2022/09/02 09:42:48;;;;;;;2.42;0.30;;;;;;;23.87;25.76;101907.69;5004778;28;20071;-80
2022/09/02 09:45:20;;;;;;;0.85;0.20;;;;;;;23.55;25.68;101903.06;4997744;28;20064;-78
2022/09/02 09:48:29;;;;;;;1.20;0.30;;;;;;;23.51;25.57;101899.78;4999103;28;20034;-80
2022/09/02 09:50:54;;;;;;;3.90;0.30;;;;;;;23.11;25.14;101900.22;5002860;28;20032;-76
2022/09/02 09:53:26;;;;;;;0.90;0.20;;;;;;;22.38;26.25;101893.31;4988981;28;20049;-77
2022/09/02 09:55:53;;;;;;;1.70;0.30;;;;;;;22.49;26.32;101892.50;5023783;28;20040;-76
2022/09/02 09:58:21;;;;;;;1.17;0.20;;;;;;;22.54;26.22;101896.53;4987460;28;20526;-79
2022/09/02 10:00:47;;;;;;;4.13;0.30;;;;;;;22.55;25.95;101884.91;4990710;28;20025;-78
2022/09/02 10:03:24;;;;;;;2.10;0.28;;;;;;;21.96;27.06;101898.16;5009175;28;20399;-78
2022/09/02 10:05:55;;;;;;;1.25;0.20;;;;;;;21.07;27.35;101893.78;5014073;28;20030;-78
2022/09/02 10:08:23;;;;;;;0.85;0.28;;;;;;;21.67;27.83;101889.63;5009736;28;20046;-79
2022/09/02 10:10:58;;;;;;;3.60;0.30;;;;;;;22.25;26.92;101892.53;4991334;28;20030;-78
2022/09/02 10:13:32;;;;;;;0.93;0.20;;;;;;;22.46;26.15;101885.59;4993225;28;20124;-77
2022/09/02 10:16:06;;;;;;;0.63;0.10;;;;;;;22.87;26.25;101888.78;5001706;28;20039;-78
2022/09/02 10:18:48;;;;;;;2.40;0.20;;;;;;;22.80;25.71;101883.06;5004977;28;20119;-81
2022/09/02 10:21:17;;;;;;;0.65;0.35;;;;;;;22.55;25.76;101879.59;5009665;28;20041;-79
2022/09/02 10:24:20;;;;;;;1.30;0.20;;;;;;;21.94;26.65;101882.31;5020271;28;20077;-78
2022/09/02 10:26:49;;;;;;;0.55;0.20;;;;;;;21.95;26.72;101881.31;5010701;28;20061;-79
2022/09/02 10:29:47;;;;;;;1.10;0.20;;;;;;;22.29;25.95;101873.56;4986743;28;20081;-77
2022/09/02 10:32:34;;;;;;;2.70;0.20;;;;;;;23.13;24.67;101871.63;5008210;28;20049;-80
2022/09/02 10:35:28;;;;;;;2.67;0.20;;;;;;;23.42;24.77;101864.03;5008434;28;20029;-78
2022/09/02 10:38:06;;;;;;;4.43;0.30;;;;;;;23.02;25.96;101865.44;4988489;28;20481;-80
2022/09/02 10:40:44;;;;;;;4.53;0.30;;;;;;;23.26;25.07;101860.84;5015757;28;20034;-81
2022/09/02 10:43:58;;;;;;;0.73;0.50;;;;;;;22.91;25.86;101856.44;5002739;28;21193;-76
2022/09/02 10:46:25;;;;;;;1.17;0.20;;;;;;;23.16;24.17;101851.88;5004052;28;20038;-77
2022/09/02 10:49:09;;;;;;;2.28;0.40;;;;;;;22.94;24.45;101848.22;4986637;28;20092;-82
2022/09/02 10:52:08;;;;;;;3.05;0.20;;;;;;;22.41;25.40;101849.66;5007135;28;20037;-77
2022/09/02 10:54:43;;;;;;;1.25;0.30;;;;;;;22.68;24.83;101849.34;5003881;28;20492;-78
2022/09/02 10:57:17;;;;;;;0.85;0.30;;;;;;;22.91;24.58;101845.78;5003414;28;20484;-79
2022/09/02 10:59:51;;;;;;;1.42;0.47;;;;;;;22.76;25.08;101849.63;4988113;28;20554;-80
2022/09/02 11:02:25;;;;;;;4.85;0.30;;;;;;;22.86;24.52;101839.97;5014876;28;20099;-79
2022/09/02 11:05:06;;;;;;;1.33;0.30;;;;;;;22.85;24.66;101837.41;4981428;28;20184;-78
2022/09/02 11:08:17;;;;;;;4.68;0.25;;;;;;;23.41;24.30;101840.16;5004513;28;20034;-79
2022/09/02 11:11:06;;;;;;;1.80;0.35;;;;;;;22.80;25.22;101825.28;4971914;28;20041;-78
2022/09/02 11:13:37;;;;;;;1.05;0.30;;;;;;;23.17;24.90;101832.25;5009805;28;20121;-78
2022/09/02 11:16:14;;;;;;;;;;;;;;;22.79;25.01;101822.75;4985375;28;20033;-80
2022/09/02 11:18:42;;;;;;;1.42;0.47;;;;;;;22.13;26.29;101825.91;5002893;28;20291;-79
2022/09/02 11:21:27;;;;;;;2.28;0.90;;;;;;;22.42;25.75;101817.56;4986159;28;20579;-82
2022/09/02 11:24:00;;;;;;;1.55;0.30;;;;;;;22.73;24.84;101812.56;5015947;28;20037;-74
2022/09/02 11:26:43;;;;;;;0.82;0.45;;;;;;;22.63;25.33;101806.22;5025899;28;20049;-79
2022/09/02 11:29:15;;;;;;;1.10;0.30;;;;;;;23.04;24.83;101815.53;4994294;28;20277;-75
2022/09/02 11:31:49;;;;;;;1.85;0.35;;;;;;;23.90;23.58;101814.84;5004011;28;20038;-78
2022/09/02 11:34:18;;;;;;;2.38;0.30;;;;;;;23.55;23.37;101801.69;5002922;28;20030;-78
2022/09/02 11:36:44;;;;;;;5.65;0.70;;;;;;;22.55;24.55;101804.16;4989765;28;20158;-79
2022/09/02 11:39:30;;;;;;;2.22;0.50;;;;;;;23.39;23.71;101800.25;4983756;28;20132;-78